createdAt,value
2023-04-09T00:01:43.263Z,8.10
2023-04-09T00:04:31.727Z,8.20
2023-04-09T00:07:19.730Z,8.30
2023-04-09T00:10:08.905Z,8.20
2023-04-09T00:12:57.452Z,8.10
2023-04-09T00:15:45.387Z,8.00
2023-04-09T00:18:32.940Z,8.20
2023-04-09T00:21:20.856Z,8.20
2023-04-09T00:24:08.580Z,8.30
2023-04-09T00:26:56.324Z,8.40
2023-04-09T00:29:45.191Z,8.30
2023-04-09T00:32:32.653Z,8.20
2023-04-09T00:35:20.983Z,8.20
2023-04-09T00:38:07.770Z,8.30
2023-04-09T00:40:54.919Z,8.30
2023-04-09T00:43:42.929Z,8.20
2023-04-09T00:46:32.417Z,8.00
2023-04-09T00:49:19.939Z,7.90
2023-04-09T00:52:07.296Z,7.80
2023-04-09T00:54:54.805Z,7.80
2023-04-09T00:57:42.217Z,7.90
2023-04-09T01:00:29.537Z,7.80
2023-04-09T01:03:18.725Z,7.80
2023-04-09T01:06:12.494Z,7.80
2023-04-09T01:09:05.332Z,7.80
2023-04-09T01:12:03.723Z,7.70
2023-04-09T01:14:58.117Z,7.60
2023-04-09T01:17:52.000Z,7.40
2023-04-09T01:20:44.433Z,7.50
2023-04-09T01:23:41.024Z,7.40
2023-04-09T01:26:42.830Z,7.50
2023-04-09T01:29:34.860Z,7.40
2023-04-09T01:32:23.761Z,7.30
2023-04-09T01:35:11.665Z,7.20
2023-04-09T01:37:59.605Z,7.10
2023-04-09T01:40:47.350Z,7.20
2023-04-09T01:43:35.744Z,7.20
2023-04-09T01:46:24.867Z,7.30
2023-04-09T01:49:13.302Z,7.10
2023-04-09T01:52:00.832Z,7.20
2023-04-09T01:54:48.257Z,7.10
2023-04-09T01:57:35.605Z,6.90
2023-04-09T02:00:23.021Z,6.90
2023-04-09T02:03:15.553Z,6.80
2023-04-09T02:06:08.843Z,6.70
2023-04-09T02:08:58.709Z,6.70
2023-04-09T02:11:48.566Z,6.80
2023-04-09T02:14:37.145Z,6.90
2023-04-09T02:17:25.111Z,7.00
2023-04-09T02:20:18.799Z,7.00
2023-04-09T02:23:06.184Z,7.00
2023-04-09T02:25:54.939Z,7.10
2023-04-09T02:28:41.952Z,7.00
2023-04-09T02:31:28.832Z,7.10
2023-04-09T02:34:16.191Z,6.90
2023-04-09T02:37:05.350Z,6.90
2023-04-09T02:39:53.515Z,6.90
2023-04-09T02:42:40.530Z,6.70
2023-04-09T02:45:27.540Z,6.70
2023-04-09T02:48:14.962Z,6.70
2023-04-09T02:51:06.795Z,6.70
2023-04-09T02:53:55.449Z,6.80
2023-04-09T02:56:42.700Z,6.80
2023-04-09T02:59:29.985Z,6.70
2023-04-09T03:02:17.386Z,6.70
2023-04-09T03:05:04.810Z,6.50
2023-04-09T03:07:52.180Z,6.50
2023-04-09T03:10:41.455Z,6.60
2023-04-09T03:13:29.282Z,6.60
2023-04-09T03:16:16.847Z,6.60
2023-04-09T03:19:04.435Z,6.50
2023-04-09T03:21:51.869Z,6.40
2023-04-09T03:24:43.862Z,6.30
2023-04-09T03:27:34.237Z,6.30
2023-04-09T03:30:23.368Z,6.30
2023-04-09T03:33:11.382Z,6.20
2023-04-09T03:36:24.540Z,6.30
2023-04-09T03:39:18.219Z,6.30
2023-04-09T03:42:06.476Z,6.30
2023-04-09T03:45:05.314Z,6.20
2023-04-09T03:47:58.002Z,6.30
2023-04-09T03:50:46.353Z,6.30
2023-04-09T03:53:38.016Z,6.50
2023-04-09T03:56:27.043Z,6.30
2023-04-09T03:59:15.023Z,6.40
2023-04-09T04:02:07.849Z,6.40
2023-04-09T04:04:58.426Z,6.40
2023-04-09T04:07:50.359Z,6.30
2023-04-09T04:10:46.445Z,6.30
2023-04-09T04:13:36.203Z,6.30
2023-04-09T04:16:27.315Z,6.50
2023-04-09T04:19:17.457Z,6.50
2023-04-09T04:22:08.582Z,6.40
2023-04-09T04:24:59.186Z,6.20
2023-04-09T04:27:46.574Z,6.20
2023-04-09T04:30:36.416Z,6.10
2023-04-09T04:33:27.186Z,6.00
2023-04-09T04:36:17.413Z,6.00
2023-04-09T04:39:10.625Z,6.00
2023-04-09T04:42:18.585Z,5.90
2023-04-09T04:45:08.425Z,5.80
2023-04-09T04:48:02.265Z,5.80
2023-04-09T04:50:57.122Z,5.80
2023-04-09T04:53:47.615Z,5.80
2023-04-09T04:56:35.439Z,5.80
2023-04-09T04:59:28.966Z,5.80
2023-04-09T05:02:20.161Z,5.80
2023-04-09T05:05:33.476Z,5.80
2023-04-09T05:08:21.432Z,5.80
2023-04-09T05:11:15.290Z,5.70
2023-04-09T05:14:04.880Z,5.80
2023-04-09T05:16:52.478Z,5.80
2023-04-09T05:19:44.250Z,5.80
2023-04-09T05:22:32.989Z,5.80
2023-04-09T05:25:20.876Z,6.00
2023-04-09T05:28:11.243Z,6.00
2023-04-09T05:31:00.515Z,6.10
2023-04-09T05:33:47.938Z,6.10
2023-04-09T05:36:41.386Z,6.10
2023-04-09T05:39:29.266Z,6.10
2023-04-09T05:42:19.909Z,6.20
2023-04-09T05:45:14.272Z,6.20
2023-04-09T05:48:08.436Z,6.10
2023-04-09T05:50:56.045Z,6.10
2023-04-09T05:53:46.436Z,6.20
2023-04-09T05:56:33.969Z,6.20
2023-04-09T05:59:21.589Z,6.10
2023-04-09T06:02:10.059Z,6.20
2023-04-09T06:04:57.419Z,6.10
2023-04-09T06:07:45.671Z,6.10
2023-04-09T06:10:35.042Z,6.20
2023-04-09T06:13:22.723Z,6.20
2023-04-09T06:16:10.697Z,6.10
2023-04-09T06:18:59.213Z,6.20
2023-04-09T06:21:47.250Z,6.20
2023-04-09T06:24:34.779Z,6.20
2023-04-09T06:27:23.944Z,6.30
2023-04-09T06:30:12.293Z,6.20
2023-04-09T06:32:59.952Z,6.20
2023-04-09T06:35:49.727Z,6.30
2023-04-09T06:38:37.850Z,6.30
2023-04-09T06:41:26.500Z,6.50
2023-04-09T06:44:13.739Z,6.60
2023-04-09T06:47:08.843Z,6.70
2023-04-09T06:49:56.257Z,6.90
2023-04-09T06:52:45.528Z,7.10
2023-04-09T06:55:32.644Z,7.20
2023-04-09T06:58:21.397Z,7.20
2023-04-09T07:01:08.936Z,7.20
2023-04-09T07:03:56.863Z,7.30
2023-04-09T07:06:44.778Z,7.50
2023-04-09T07:09:33.992Z,7.70
2023-04-09T07:12:28.364Z,7.80
2023-04-09T07:15:15.893Z,7.80
2023-04-09T07:18:03.976Z,7.90
2023-04-09T07:20:53.102Z,8.10
2023-04-09T07:23:41.553Z,8.10
2023-04-09T07:26:30.682Z,8.20
2023-04-09T07:29:20.727Z,8.30
2023-04-09T07:32:08.845Z,8.30
2023-04-09T07:34:57.315Z,8.40
2023-04-09T07:37:45.383Z,8.60
2023-04-09T07:40:35.384Z,8.80
2023-04-09T07:43:23.882Z,9.00
2023-04-09T07:46:11.280Z,9.20
2023-04-09T07:48:58.426Z,9.40
2023-04-09T07:51:45.442Z,9.30
2023-04-09T07:54:33.178Z,9.50
2023-04-09T07:57:20.913Z,9.70
2023-04-09T08:00:12.324Z,9.80
2023-04-09T08:03:05.043Z,10.10
2023-04-09T08:05:53.142Z,10.10
2023-04-09T08:08:41.062Z,10.40
2023-04-09T08:11:28.912Z,10.50
2023-04-09T08:14:16.947Z,10.50
2023-04-09T08:17:06.244Z,10.80
2023-04-09T08:19:53.641Z,10.90
2023-04-09T08:22:42.836Z,11.20
2023-04-09T08:25:30.698Z,11.20
2023-04-09T08:28:18.485Z,11.10
2023-04-09T08:31:06.512Z,11.00
2023-04-09T08:33:55.382Z,11.20
2023-04-09T08:36:46.472Z,11.40
2023-04-09T08:39:34.275Z,11.60
2023-04-09T08:42:24.144Z,11.70
2023-04-09T08:45:13.173Z,11.80
2023-04-09T08:48:03.680Z,12.00
2023-04-09T08:50:53.251Z,12.10
2023-04-09T08:53:41.391Z,12.30
2023-04-09T08:56:29.950Z,12.60
2023-04-09T08:59:19.525Z,12.20
2023-04-09T09:02:11.577Z,11.90
2023-04-09T09:05:01.107Z,12.30
2023-04-09T09:07:55.952Z,12.80
2023-04-09T09:10:45.099Z,12.90
2023-04-09T09:13:32.834Z,13.10
2023-04-09T09:16:21.150Z,13.20
2023-04-09T09:19:08.677Z,13.30
2023-04-09T09:21:57.856Z,13.20
2023-04-09T09:24:51.784Z,12.60
2023-04-09T09:27:41.091Z,13.10
2023-04-09T09:30:29.063Z,13.70
2023-04-09T09:33:16.790Z,13.60
2023-04-09T09:36:04.799Z,14.10
2023-04-09T09:38:56.283Z,14.30
2023-04-09T09:41:46.730Z,14.30
2023-04-09T09:44:35.072Z,14.30
2023-04-09T09:47:23.483Z,14.70
2023-04-09T09:50:11.490Z,14.70
2023-04-09T09:53:04.973Z,14.90
2023-04-09T09:55:58.536Z,14.90
2023-04-09T09:58:52.110Z,15.10
2023-04-09T10:01:41.435Z,15.30
2023-04-09T10:04:30.764Z,15.40
2023-04-09T10:07:19.526Z,15.10
2023-04-09T10:10:10.213Z,15.00
2023-04-09T10:12:59.195Z,15.50
2023-04-09T10:15:48.341Z,15.50
2023-04-09T10:18:37.017Z,14.60
2023-04-09T10:21:32.642Z,14.70
2023-04-09T10:24:20.657Z,14.30
2023-04-09T10:27:15.718Z,15.40
2023-04-09T10:30:05.184Z,15.80
2023-04-09T10:32:54.537Z,15.30
2023-04-09T10:35:42.744Z,15.90
2023-04-09T10:38:38.712Z,16.80
2023-04-09T10:41:29.654Z,16.80
2023-04-09T10:44:24.905Z,17.10
2023-04-09T10:47:13.182Z,16.70
2023-04-09T10:50:17.283Z,17.20
2023-04-09T10:53:05.619Z,17.40
2023-04-09T10:55:55.506Z,17.20
2023-04-09T10:58:42.205Z,17.70
2023-04-09T11:01:31.418Z,18.40
2023-04-09T11:04:22.749Z,18.80
2023-04-09T11:07:11.961Z,18.90
2023-04-09T11:09:59.836Z,18.70
2023-04-09T11:12:49.069Z,18.80
2023-04-09T11:15:37.826Z,17.70
2023-04-09T11:18:27.098Z,18.20
2023-04-09T11:21:14.415Z,19.00
2023-04-09T11:24:03.902Z,18.00
2023-04-09T11:26:51.419Z,17.60
2023-04-09T11:29:38.717Z,17.00
2023-04-09T11:32:31.444Z,17.50
2023-04-09T11:35:20.661Z,18.10
2023-04-09T11:38:09.648Z,18.20
2023-04-09T11:40:59.405Z,18.40
2023-04-09T11:43:47.235Z,18.50
2023-04-09T11:46:35.856Z,18.30
2023-04-09T11:49:23.940Z,18.00
2023-04-09T11:52:11.263Z,17.40
2023-04-09T11:55:01.666Z,17.00
2023-04-09T11:57:54.000Z,16.40
2023-04-09T12:00:42.364Z,17.00
2023-04-09T12:03:33.023Z,16.30
2023-04-09T12:06:22.855Z,16.10
2023-04-09T12:09:13.739Z,16.20
2023-04-09T12:12:02.218Z,16.10
2023-04-09T12:14:52.005Z,16.50
2023-04-09T12:17:38.970Z,17.10
2023-04-09T12:20:35.946Z,17.30
2023-04-09T12:23:23.779Z,17.40
2023-04-09T12:26:11.317Z,17.60
2023-04-09T12:28:59.065Z,17.20
2023-04-09T12:31:48.449Z,16.80
2023-04-09T12:34:36.147Z,17.20
2023-04-09T12:37:23.684Z,17.30
2023-04-09T12:40:13.905Z,17.50
2023-04-09T12:43:02.524Z,17.50
2023-04-09T12:45:50.279Z,16.80
2023-04-09T12:48:39.068Z,17.20
2023-04-09T12:51:26.993Z,17.40
2023-04-09T12:54:14.547Z,17.40
2023-04-09T12:57:02.352Z,16.50
2023-04-09T12:59:50.462Z,16.80
2023-04-09T13:02:38.084Z,17.00
2023-04-09T13:05:27.172Z,17.30
2023-04-09T13:08:14.584Z,17.30
2023-04-09T13:11:02.012Z,17.20
2023-04-09T13:13:49.295Z,17.50
2023-04-09T13:16:36.990Z,17.50
2023-04-09T13:19:24.802Z,16.90
2023-04-09T13:22:14.569Z,16.90
2023-04-09T13:25:01.825Z,17.10
2023-04-09T13:27:49.747Z,16.80
2023-04-09T13:30:37.627Z,17.40
2023-04-09T13:33:25.344Z,17.70
2023-04-09T13:36:12.776Z,17.90
2023-04-09T13:39:04.565Z,17.20
2023-04-09T13:41:52.715Z,17.10
2023-04-09T13:44:42.442Z,17.30
2023-04-09T13:47:30.765Z,17.30
2023-04-09T13:50:18.786Z,16.80
2023-04-09T13:53:06.930Z,17.10
2023-04-09T13:55:56.853Z,17.10
2023-04-09T13:58:44.545Z,17.10
2023-04-09T14:01:32.600Z,16.90
2023-04-09T14:04:20.784Z,17.30
2023-04-09T14:07:08.767Z,17.40
2023-04-09T14:09:56.531Z,16.90
2023-04-09T14:12:45.770Z,17.10
2023-04-09T14:15:33.465Z,17.30
2023-04-09T14:18:21.055Z,17.20
2023-04-09T14:21:10.387Z,17.20
2023-04-09T14:23:58.448Z,17.20
2023-04-09T14:26:46.404Z,17.10
2023-04-09T14:29:35.762Z,17.10
2023-04-09T14:32:23.940Z,17.00
2023-04-09T14:35:11.840Z,17.00
2023-04-09T14:37:59.501Z,16.90
2023-04-09T14:40:47.022Z,16.30
2023-04-09T14:43:34.927Z,15.90
2023-04-09T14:46:23.939Z,16.20
2023-04-09T14:49:11.333Z,16.40
2023-04-09T14:52:00.911Z,16.50
2023-04-09T14:54:48.542Z,16.50
2023-04-09T14:57:36.307Z,16.50
2023-04-09T15:00:24.128Z,16.30
2023-04-09T15:03:13.455Z,16.20
2023-04-09T15:06:01.526Z,16.40
2023-04-09T15:08:49.363Z,16.50
2023-04-09T15:11:37.197Z,16.40
2023-04-09T15:14:24.646Z,16.40
2023-04-09T15:17:12.482Z,16.40
2023-04-09T15:20:01.361Z,16.20
2023-04-09T15:22:49.775Z,16.20
2023-04-09T15:25:37.608Z,16.40
2023-04-09T15:28:25.046Z,16.40
2023-04-09T15:31:13.088Z,16.30
2023-04-09T15:34:01.036Z,16.40
2023-04-09T15:36:50.538Z,16.20
2023-04-09T15:39:38.226Z,16.00
2023-04-09T15:42:25.020Z,16.20
2023-04-09T15:45:12.462Z,16.30
2023-04-09T15:47:59.425Z,16.10
2023-04-09T15:50:46.792Z,16.20
2023-04-09T15:53:35.968Z,16.00
2023-04-09T15:56:23.585Z,15.70
2023-04-09T15:59:11.337Z,15.50
2023-04-09T16:01:58.425Z,15.30
2023-04-09T16:04:46.268Z,15.40
2023-04-09T16:07:33.729Z,15.60
2023-04-09T16:10:23.498Z,15.80
2023-04-09T16:13:11.234Z,15.50
2023-04-09T16:15:59.137Z,15.70
2023-04-09T16:18:46.100Z,15.80
2023-04-09T16:21:33.715Z,15.70
2023-04-09T16:24:21.387Z,15.80
2023-04-09T16:27:10.042Z,16.10
2023-04-09T16:29:57.729Z,16.10
2023-04-09T16:32:44.971Z,16.00
2023-04-09T16:35:32.761Z,15.50
2023-04-09T16:38:20.730Z,15.40
2023-04-09T16:41:08.182Z,15.50
2023-04-09T16:43:57.324Z,15.60
2023-04-09T16:46:44.851Z,15.90
2023-04-09T16:49:32.593Z,16.00
2023-04-09T16:52:19.909Z,15.90
2023-04-09T16:55:09.077Z,15.60
2023-04-09T16:57:57.427Z,15.40
2023-04-09T17:00:47.752Z,15.50
2023-04-09T17:03:36.105Z,15.60
2023-04-09T17:06:23.697Z,15.60
2023-04-09T17:09:11.636Z,15.30
2023-04-09T17:11:59.255Z,15.50
2023-04-09T17:14:47.006Z,15.30
2023-04-09T17:17:36.319Z,15.50
2023-04-09T17:20:25.379Z,15.30
2023-04-09T17:23:14.748Z,15.50
2023-04-09T17:26:03.330Z,15.60
2023-04-09T17:28:52.168Z,15.60
2023-04-09T17:31:40.267Z,15.50
2023-04-09T17:34:29.653Z,15.30
2023-04-09T17:37:17.475Z,15.60
2023-04-09T17:40:05.727Z,15.40
2023-04-09T17:42:53.665Z,15.40
2023-04-09T17:45:43.353Z,15.20
2023-04-09T17:48:32.025Z,15.00
2023-04-09T17:51:21.468Z,15.00
2023-04-09T17:54:08.803Z,14.80
2023-04-09T17:56:57.044Z,14.80
2023-04-09T17:59:44.208Z,14.60
2023-04-09T18:02:32.183Z,14.70
2023-04-09T18:05:20.970Z,14.80
2023-04-09T18:08:10.124Z,14.60
2023-04-09T18:11:11.336Z,14.70
2023-04-09T18:14:00.545Z,14.70
2023-04-09T18:16:48.384Z,14.50
2023-04-09T18:19:35.740Z,14.50
2023-04-09T18:22:23.830Z,14.50
2023-04-09T18:25:13.014Z,14.50
2023-04-09T18:28:00.749Z,14.40
2023-04-09T18:30:48.383Z,14.20
2023-04-09T18:33:35.416Z,14.20
2023-04-09T18:36:22.837Z,14.10
2023-04-09T18:39:10.869Z,13.90
2023-04-09T18:41:59.211Z,13.90
2023-04-09T18:44:46.955Z,13.90
2023-04-09T18:47:33.771Z,13.80
2023-04-09T18:50:21.097Z,13.70
2023-04-09T18:53:08.929Z,13.70
2023-04-09T18:55:56.649Z,13.50
2023-04-09T18:58:45.103Z,13.40
2023-04-09T19:01:32.928Z,13.40
2023-04-09T19:04:20.762Z,13.20
2023-04-09T19:07:08.324Z,13.20
2023-04-09T19:09:55.239Z,13.20
2023-04-09T19:12:48.510Z,13.20
2023-04-09T19:15:38.584Z,13.20
2023-04-09T19:18:25.488Z,13.20
2023-04-09T19:21:13.224Z,13.10
2023-04-09T19:24:01.177Z,13.00
2023-04-09T19:26:50.870Z,12.80
2023-04-09T19:29:38.162Z,12.70
2023-04-09T19:32:27.766Z,12.70
2023-04-09T19:35:14.999Z,12.70
2023-04-09T19:38:04.764Z,12.60
2023-04-09T19:40:52.892Z,12.60
2023-04-09T19:43:42.062Z,12.50
2023-04-09T19:46:29.514Z,12.60
2023-04-09T19:49:18.753Z,12.40
2023-04-09T19:52:07.088Z,12.50
2023-04-09T19:54:58.016Z,12.40
2023-04-09T19:57:46.225Z,12.30
2023-04-09T20:00:34.215Z,12.30
2023-04-09T20:03:22.959Z,12.20
2023-04-09T20:06:12.436Z,12.20
2023-04-09T20:09:01.257Z,12.20
2023-04-09T20:11:51.507Z,12.20
2023-04-09T20:14:39.552Z,12.20
2023-04-09T20:17:26.981Z,12.20
2023-04-09T20:20:15.012Z,12.20
2023-04-09T20:23:03.841Z,12.30
2023-04-09T20:25:54.851Z,12.30
2023-04-09T20:28:42.716Z,12.40
2023-04-09T20:31:31.022Z,12.30
2023-04-09T20:34:18.570Z,12.30
2023-04-09T20:37:06.815Z,12.20
2023-04-09T20:39:55.778Z,12.20
2023-04-09T20:42:43.619Z,12.30
2023-04-09T20:45:30.602Z,12.20
2023-04-09T20:48:19.296Z,12.10
2023-04-09T20:51:10.733Z,11.90
2023-04-09T20:53:58.030Z,12.00
2023-04-09T20:56:47.113Z,12.00
2023-04-09T20:59:34.826Z,11.90
2023-04-09T21:02:22.264Z,11.90
2023-04-09T21:05:21.827Z,11.90
2023-04-09T21:08:15.337Z,12.00
2023-04-09T21:11:02.404Z,11.80
2023-04-09T21:13:55.131Z,11.80
2023-04-09T21:16:43.403Z,11.80
2023-04-09T21:19:30.467Z,11.70
2023-04-09T21:22:18.124Z,11.60
2023-04-09T21:25:05.732Z,11.50
2023-04-09T21:27:53.197Z,11.30
2023-04-09T21:30:43.309Z,11.30
2023-04-09T21:33:30.987Z,11.20
2023-04-09T21:36:18.470Z,11.30
2023-04-09T21:39:06.671Z,11.30
2023-04-09T21:41:54.418Z,11.20
2023-04-09T21:44:42.128Z,11.10
2023-04-09T21:47:32.093Z,11.10
2023-04-09T21:50:19.642Z,11.00
2023-04-09T21:53:08.215Z,10.90
2023-04-09T21:55:55.933Z,10.90
2023-04-09T21:58:43.052Z,11.00
2023-04-09T22:01:31.658Z,10.70
2023-04-09T22:04:21.337Z,10.70
2023-04-09T22:07:09.225Z,10.80
2023-04-09T22:09:58.101Z,10.80
2023-04-09T22:12:46.232Z,10.80
2023-04-09T22:15:33.518Z,10.70
2023-04-09T22:18:21.498Z,10.60
2023-04-09T22:21:15.889Z,10.60
2023-04-09T22:24:03.923Z,10.60
2023-04-09T22:26:51.999Z,10.60
2023-04-09T22:29:39.287Z,10.60
2023-04-09T22:32:27.562Z,10.70
2023-04-09T22:35:18.453Z,10.60
2023-04-09T22:38:07.172Z,10.70
2023-04-09T22:40:55.339Z,10.70
2023-04-09T22:43:42.964Z,10.70
2023-04-09T22:46:31.021Z,10.60
2023-04-09T22:49:18.645Z,10.50
2023-04-09T22:52:06.782Z,10.60
2023-04-09T22:54:55.645Z,10.50
2023-04-09T22:57:44.406Z,10.50
2023-04-09T23:00:32.458Z,10.40
2023-04-09T23:03:20.254Z,10.30
2023-04-09T23:06:08.313Z,10.40
2023-04-09T23:08:56.125Z,10.50
2023-04-09T23:11:45.626Z,10.50
2023-04-09T23:14:33.262Z,10.30
2023-04-09T23:17:22.476Z,10.20
2023-04-09T23:20:11.494Z,10.30
2023-04-09T23:22:59.048Z,10.30
2023-04-09T23:25:46.707Z,10.40
2023-04-09T23:28:35.188Z,10.20
2023-04-09T23:31:23.112Z,10.10
2023-04-09T23:34:11.019Z,10.00
2023-04-09T23:36:58.737Z,10.10
2023-04-09T23:39:47.915Z,10.10
2023-04-09T23:42:35.738Z,10.20
2023-04-09T23:45:24.907Z,10.10
2023-04-09T23:48:13.466Z,10.00
2023-04-09T23:51:00.487Z,9.80
2023-04-09T23:53:48.290Z,9.90
2023-04-09T23:56:36.334Z,9.80
2023-04-09T23:59:24.063Z,9.80
